KBBB/BBB METAR and TAF weather

Enter ICAO airport designator
Station Type Date Time Source
KBBB METAR 2022/01/19 20:36 UTC NOAA

KBBB 192036Z AUTO 34019KT 10SM CLR M19/M23 A3054 RMK AO2


Station Type Date Time Source
KBBB Decoded METAR 2022/01/19 20:36 UTC NOAA

Benson Municipal, MN, United States (KBBB) 45-19N 095-39W
Jan 19, 2022 - 03:36 PM EST / 2022.01.19 2036 UTC
Wind: from the NNW (340 degrees) at 22 MPH (19 KT):0
Visibility: 10 mile(s):0
Sky conditions: clear
Temperature: -2 F (-19 C)
Windchill: -25 F (-32 C):2
Dew Point: -9 F (-23 C)
Relative Humidity: 70%
Pressure (altimeter): 30.54 in. Hg (1034 hPa)
ob: KBBB 192036Z AUTO 34019KT 10SM CLR M19/M23 A3054 RMK AO2
cycle: 20

Station Type Date Time Source
KBBB TAF UTC NOAA

Error!

Example: see airport list